Time;durP1;ratioP1;P1;durP2;ratioP2;P2;SDS_P1;SDS_P2;PMS_P1;PMS_P2;Temp;Humidity;BMP_temperature;BMP_pressure;BME280_temperature;BME280_humidity;BME280_pressure;Samples;Min_cycle;Max_cycle;Signal;HPM_P1;HPM_P2
2022/05/26 00:00:57;;;;;;;4.15;3.55;;;;;;;;;;5223214;28;20025;-61
2022/05/26 00:03:27;;;;;;;6.00;3.38;;;;;;;;;;5222609;28;20505;-67
2022/05/26 00:05:58;;;;;;;4.13;3.83;;;;;;;;;;5222895;28;20024;-64
2022/05/26 00:08:28;;;;;;;5.70;4.53;;;;;;;;;;5223346;28;20108;-62
2022/05/26 00:10:59;;;;;;;5.40;4.13;;;;;;;;;;5223049;28;20063;-62
2022/05/26 00:13:29;;;;;;;6.03;4.85;;;;;;;;;;5222971;28;20021;-62
2022/05/26 00:15:59;;;;;;;4.95;3.70;;;;;;;;;;5222803;28;20484;-62
2022/05/26 00:18:30;;;;;;;5.35;4.97;;;;;;;;;;5223433;28;20122;-62
2022/05/26 00:21:01;;;;;;;5.43;4.85;;;;;;;;;;5226743;28;20514;-62
2022/05/26 00:23:31;;;;;;;5.88;4.30;;;;;;;;;;5226191;28;20112;-62
2022/05/26 00:26:02;;;;;;;5.60;4.10;;;;;;;;;;5226750;28;20009;-62
2022/05/26 00:28:32;;;;;;;3.00;2.80;;;;;;;;;;5226685;28;20083;-62
2022/05/26 00:31:03;;;;;;;9.00;5.53;;;;;;;;;;5226526;28;20040;-63
2022/05/26 00:33:33;;;;;;;4.45;4.05;;;;;;;;;;5226382;28;20031;-64
2022/05/26 00:36:05;;;;;;;4.63;4.13;;;;;;;;;;5227819;28;20469;-63
2022/05/26 00:38:35;;;;;;;7.13;4.68;;;;;;;;;;5226344;28;20217;-60
2022/05/26 00:41:07;;;;;;;4.20;3.88;;;;;;;;;;5226300;28;20112;-65
2022/05/26 00:43:44;;;;;;;4.18;3.97;;;;;;;;;;5226053;28;20094;-62
2022/05/26 00:46:19;;;;;;;5.47;4.57;;;;;;;;;;5227321;28;20537;-63
2022/05/26 00:48:54;;;;;;;3.35;3.15;;;;;;;;;;5226436;28;20021;-60
2022/05/26 00:51:26;;;;;;;5.88;4.68;;;;;;;;;;5226167;28;20523;-60
2022/05/26 00:57:08;;;;;;;9.20;4.68;;;;;;;;;;5227575;28;20013;-61
2022/05/26 00:59:44;;;;;;;4.50;4.25;;;;;;;;;;5226083;28;20028;-60
2022/05/26 01:02:17;;;;;;;7.10;4.78;;;;;;;;;;5226019;28;20025;-60
2022/05/26 01:04:50;;;;;;;9.98;4.50;;;;;;;;;;5225494;28;20029;-63
2022/05/26 01:07:20;;;;;;;5.07;4.78;;;;;;;;;;5226035;28;20024;-62
2022/05/26 01:09:51;;;;;;;4.45;4.05;;;;;;;;;;5225841;28;20112;-61
2022/05/26 01:12:21;;;;;;;4.32;4.05;;;;;;;;;;5225832;28;20027;-59
2022/05/26 01:14:54;;;;;;;6.63;4.28;;;;;;;;;;5225178;28;20025;-62
2022/05/26 01:17:31;;;;;;;8.60;4.68;;;;;;;;;;5225575;28;20456;-62
2022/05/26 01:20:13;;;;;;;8.95;4.93;;;;;;;;;;5225373;28;20025;-61
2022/05/26 01:23:02;;;;;;;5.95;3.78;;;;;;;;;;5225203;28;20028;-60
2022/05/26 01:25:51;;;;;;;7.23;4.73;;;;;;;;;;5225225;28;20021;-63
2022/05/26 01:28:40;;;;;;;5.37;4.40;;;;;;;;;;5225440;28;20021;-61
2022/05/26 01:31:29;;;;;;;9.35;6.20;;;;;;;;;;5224855;28;20028;-63
2022/05/26 01:33:59;;;;;;;6.13;4.07;;;;;;;;;;5224684;28;20024;-61
2022/05/26 01:36:30;;;;;;;5.18;4.68;;;;;;;;;;5226391;28;20032;-61
2022/05/26 01:39:01;;;;;;;4.70;4.40;;;;;;;;;;5225151;28;20067;-60
2022/05/26 01:41:50;;;;;;;6.28;4.72;;;;;;;;;;5225134;28;20116;-64
2022/05/26 01:44:20;;;;;;;7.80;5.77;;;;;;;;;;5224435;28;20564;-62
2022/05/26 01:46:50;;;;;;;4.45;4.07;;;;;;;;;;5225250;28;20320;-60
2022/05/26 01:49:39;;;;;;;6.78;4.75;;;;;;;;;;5224848;28;20082;-62
2022/05/26 01:52:10;;;;;;;7.35;4.53;;;;;;;;;;5249804;22;20542;-84
2022/05/26 01:54:40;;;;;;;10.23;6.17;;;;;;;;;;5222332;28;20029;-83
2022/05/26 01:57:15;;;;;;;6.30;5.77;;;;;;;;;;5202710;28;20041;-82
2022/05/26 01:59:50;;;;;;;5.18;4.07;;;;;;;;;;5195800;28;20326;-82
2022/05/26 02:02:24;;;;;;;8.82;5.40;;;;;;;;;;5213770;28;20112;-82
2022/05/26 02:04:57;;;;;;;5.45;4.82;;;;;;;;;;5213266;28;20466;-82
2022/05/26 02:07:35;;;;;;;7.72;6.30;;;;;;;;;;5212498;28;20076;-83
2022/05/26 02:10:09;;;;;;;7.10;5.22;;;;;;;;;;5213218;28;20022;-83
2022/05/26 02:12:41;;;;;;;4.82;4.32;;;;;;;;;;5213638;28;20017;-81
2022/05/26 02:15:15;;;;;;;8.05;5.93;;;;;;;;;;5212658;28;20438;-83
2022/05/26 02:17:47;;;;;;;7.93;4.30;;;;;;;;;;5212991;28;20044;-84
2022/05/26 02:20:26;;;;;;;10.90;5.10;;;;;;;;;;5211667;28;20083;-83
2022/05/26 02:23:06;;;;;;;8.40;4.85;;;;;;;;;;5196252;28;20361;-83
2022/05/26 02:25:36;;;;;;;5.85;5.25;;;;;;;;;;5194559;28;20021;-82
2022/05/26 02:28:06;;;;;;;10.15;6.80;;;;;;;;;;5211236;28;20029;-82
2022/05/26 02:30:37;;;;;;;8.77;6.05;;;;;;;;;;5194807;28;20021;-83
2022/05/26 02:33:09;;;;;;;8.45;5.30;;;;;;;;;;5213059;28;20074;-83
2022/05/26 02:35:42;;;;;;;10.93;5.07;;;;;;;;;;5213347;28;20026;-82
2022/05/26 02:38:17;;;;;;;6.88;4.90;;;;;;;;;;5194871;28;20032;-83
2022/05/26 02:40:48;;;;;;;13.27;6.35;;;;;;;;;;5212876;28;20423;-83
2022/05/26 02:43:20;;;;;;;11.20;5.78;;;;;;;;;;5212578;28;20028;-82
2022/05/26 02:46:14;;;;;;;8.88;5.78;;;;;;;;;;5211118;28;20590;-82
2022/05/26 02:48:51;;;;;;;9.82;6.68;;;;;;;;;;5212265;28;20017;-82
2022/05/26 02:51:26;;;;;;;9.60;5.65;;;;;;;;;;5211633;28;20101;-83
2022/05/26 02:53:56;;;;;;;6.78;5.05;;;;;;;;;;5193930;28;20060;-82
2022/05/26 02:57:00;;;;;;;13.40;6.27;;;;;;;;;;5211475;28;20052;-81
2022/05/26 02:59:36;;;;;;;14.52;7.53;;;;;;;;;;5168170;28;20276;-82
2022/05/26 03:02:12;;;;;;;12.27;6.43;;;;;;;;;;5193575;28;20495;-82
2022/05/26 03:04:45;;;;;;;7.93;5.47;;;;;;;;;;5210876;28;20039;-82
2022/05/26 03:07:25;;;;;;;10.40;5.03;;;;;;;;;;5211407;28;20451;-81
2022/05/26 03:09:56;;;;;;;6.70;5.13;;;;;;;;;;5211391;28;20017;-81
2022/05/26 03:12:30;;;;;;;19.50;6.18;;;;;;;;;;5210824;28;20021;-82
2022/05/26 03:15:01;;;;;;;8.95;5.75;;;;;;;;;;5192232;28;20364;-82
2022/05/26 03:17:32;;;;;;;12.32;5.15;;;;;;;;;;5211017;28;20028;-81
2022/05/26 03:20:02;;;;;;;11.05;6.80;;;;;;;;;;5192880;28;20399;-82
2022/05/26 03:22:33;;;;;;;12.18;6.45;;;;;;;;;;5192039;28;20022;-83
2022/05/26 03:25:04;;;;;;;9.82;5.22;;;;;;;;;;5192834;28;20093;-83
2022/05/26 03:27:34;;;;;;;9.43;6.53;;;;;;;;;;5193350;28;20022;-82
2022/05/26 03:30:05;;;;;;;7.80;6.05;;;;;;;;;;5194521;28;20017;-82
2022/05/26 03:32:35;;;;;;;9.65;6.50;;;;;;;;;;5212040;28;20093;-84
2022/05/26 03:40:46;;;;;;;16.83;7.32;;;;;;;;;;5210779;28;20048;-81
2022/05/26 03:43:16;;;;;;;12.30;6.10;;;;;;;;;;5209769;28;20025;-83
2022/05/26 03:45:47;;;;;;;15.80;7.85;;;;;;;;;;5211150;28;20073;-83
2022/05/26 03:48:17;;;;;;;17.92;6.97;;;;;;;;;;5192388;28;20080;-83
2022/05/26 03:50:48;;;;;;;8.05;6.80;;;;;;;;;;5211915;28;20016;-83
2022/05/26 03:53:18;;;;;;;13.93;7.68;;;;;;;;;;5194260;28;20026;-82
2022/05/26 03:55:48;;;;;;;9.73;5.28;;;;;;;;;;5214549;28;20022;-82
2022/05/26 03:58:18;;;;;;;14.32;6.00;;;;;;;;;;5196552;28;20029;-84
2022/05/26 04:00:49;;;;;;;12.73;8.00;;;;;;;;;;5196558;28;20482;-85
2022/05/26 04:03:19;;;;;;;9.73;5.75;;;;;;;;;;5196161;28;20025;-83
2022/05/26 04:05:49;;;;;;;8.82;7.95;;;;;;;;;;5213418;28;20014;-83
2022/05/26 04:08:20;;;;;;;10.87;6.77;;;;;;;;;;5213459;28;20017;-84
2022/05/26 04:10:50;;;;;;;7.05;6.43;;;;;;;;;;5213706;28;20271;-84
2022/05/26 04:13:21;;;;;;;10.98;7.53;;;;;;;;;;5195908;28;20090;-83
2022/05/26 04:15:51;;;;;;;11.15;5.85;;;;;;;;;;5212762;28;20024;-82
2022/05/26 04:18:21;;;;;;;12.80;6.53;;;;;;;;;;5213158;28;20022;-83
2022/05/26 04:20:51;;;;;;;25.43;9.33;;;;;;;;;;5196119;28;20827;-83
2022/05/26 04:23:21;;;;;;;19.47;8.57;;;;;;;;;;5195574;28;20276;-83
2022/05/26 04:25:52;;;;;;;16.03;7.63;;;;;;;;;;5214005;28;20272;-83
2022/05/26 04:28:22;;;;;;;16.05;7.57;;;;;;;;;;5197549;28;20291;-83
2022/05/26 04:30:53;;;;;;;13.38;8.10;;;;;;;;;;5217430;28;20009;-82
2022/05/26 04:33:23;;;;;;;11.10;7.72;;;;;;;;;;5213087;28;20029;-84
2022/05/26 04:35:54;;;;;;;14.15;7.38;;;;;;;;;;5194988;28;20112;-82
2022/05/26 04:38:24;;;;;;;13.45;7.97;;;;;;;;;;5212892;28;20104;-83
2022/05/26 04:40:58;;;;;;;8.27;7.35;;;;;;;;;;5194989;28;20026;-83
2022/05/26 04:43:30;;;;;;;27.75;10.48;;;;;;;;;;5211708;28;20022;-81
2022/05/26 04:46:02;;;;;;;12.23;8.85;;;;;;;;;;5210941;28;20021;-81
2022/05/26 04:48:32;;;;;;;8.45;6.70;;;;;;;;;;5210275;28;20067;-82
2022/05/26 04:51:02;;;;;;;17.60;8.43;;;;;;;;;;5192200;28;20013;-83
2022/05/26 04:53:33;;;;;;;11.77;7.77;;;;;;;;;;5209079;28;20045;-82
2022/05/26 04:56:03;;;;;;;14.38;9.45;;;;;;;;;;5212151;28;20288;-80
2022/05/26 04:58:33;;;;;;;15.05;8.43;;;;;;;;;;5197784;28;20571;-81
2022/05/26 05:01:11;;;;;;;17.10;8.10;;;;;;;;;;5193948;28;20079;-84
2022/05/26 05:03:41;;;;;;;12.35;9.93;;;;;;;;;;5211880;28;20870;-83
2022/05/26 05:06:11;;;;;;;12.68;7.47;;;;;;;;;;5198023;28;20021;-80
2022/05/26 05:08:42;;;;;;;16.10;6.50;;;;;;;;;;5198690;28;20077;-82
2022/05/26 05:11:12;;;;;;;11.98;8.05;;;;;;;;;;5197428;28;20058;-82
2022/05/26 05:13:43;;;;;;;19.90;8.27;;;;;;;;;;5214631;28;20028;-83
2022/05/26 05:16:20;;;;;;;13.82;7.75;;;;;;;;;;5197257;28;20052;-83
2022/05/26 05:18:50;;;;;;;11.40;9.50;;;;;;;;;;5212621;28;20021;-81
2022/05/26 05:21:23;;;;;;;20.42;10.27;;;;;;;;;;5215005;28;20027;-82
2022/05/26 05:23:57;;;;;;;15.98;8.30;;;;;;;;;;5215013;28;20091;-83
2022/05/26 05:26:29;;;;;;;14.90;11.10;;;;;;;;;;5213856;28;20020;-83
2022/05/26 05:29:07;;;;;;;14.88;9.05;;;;;;;;;;5196445;28;20022;-84
2022/05/26 05:31:40;;;;;;;17.05;11.10;;;;;;;;;;5196252;28;20021;-82
2022/05/26 05:34:15;;;;;;;15.93;11.50;;;;;;;;;;5214391;28;20056;-83
2022/05/26 05:36:46;;;;;;;18.00;9.35;;;;;;;;;;5214818;28;20025;-82
2022/05/26 05:39:16;;;;;;;19.60;10.88;;;;;;;;;;5214351;28;20026;-83
2022/05/26 05:41:46;;;;;;;15.00;9.43;;;;;;;;;;5214644;28;20021;-83
2022/05/26 05:44:17;;;;;;;16.90;8.57;;;;;;;;;;5196168;28;20056;-83
2022/05/26 05:46:59;;;;;;;15.45;10.93;;;;;;;;;;5213801;28;20013;-83
2022/05/26 05:49:31;;;;;;;16.70;11.70;;;;;;;;;;5196787;28;20379;-83
2022/05/26 05:52:06;;;;;;;12.50;11.35;;;;;;;;;;5214296;28;20029;-85
2022/05/26 05:54:37;;;;;;;25.90;14.43;;;;;;;;;;5196846;28;20040;-83
2022/05/26 05:57:07;;;;;;;18.17;10.77;;;;;;;;;;5213873;28;20025;-84
2022/05/26 05:59:38;;;;;;;15.48;9.68;;;;;;;;;;5195234;28;20383;-84
2022/05/26 06:02:08;;;;;;;18.13;10.55;;;;;;;;;;5195039;28;20044;-83
2022/05/26 06:04:44;;;;;;;16.45;11.32;;;;;;;;;;5211458;28;20017;-83
2022/05/26 06:07:16;;;;;;;19.40;12.40;;;;;;;;;;5193050;28;20022;-83
2022/05/26 06:09:47;;;;;;;13.68;9.20;;;;;;;;;;5193318;28;20010;-83
2022/05/26 06:12:18;;;;;;;18.52;10.60;;;;;;;;;;5210705;28;20025;-82
2022/05/26 06:14:49;;;;;;;14.73;12.23;;;;;;;;;;5209938;28;20022;-83
2022/05/26 06:17:19;;;;;;;27.70;13.40;;;;;;;;;;5193506;28;20017;-82
2022/05/26 06:19:50;;;;;;;16.17;11.57;;;;;;;;;;5211185;28;20020;-81
2022/05/26 06:22:21;;;;;;;15.90;10.85;;;;;;;;;;5193618;28;20025;-81
2022/05/26 06:24:52;;;;;;;13.40;11.02;;;;;;;;;;5211033;28;20418;-82
2022/05/26 06:30:12;;;;;;;14.20;11.18;;;;;;;;;;5211594;28;20030;-81
2022/05/26 06:38:25;;;;;;;17.13;10.67;;;;;;;;;;5212511;28;20032;-83
2022/05/26 06:40:56;;;;;;;13.18;10.05;;;;;;;;;;5210986;28;20284;-83
2022/05/26 06:43:27;;;;;;;12.85;11.10;;;;;;;;;;5194184;28;20028;-82
2022/05/26 06:45:58;;;;;;;14.02;10.20;;;;;;;;;;5194295;28;20095;-83
2022/05/26 06:48:29;;;;;;;17.30;10.57;;;;;;;;;;5213657;28;20018;-85
2022/05/26 06:50:59;;;;;;;9.83;9.00;;;;;;;;;;5213098;28;20256;-84
2022/05/26 06:53:29;;;;;;;12.73;11.18;;;;;;;;;;5207989;28;20286;-83
2022/05/26 06:55:59;;;;;;;16.23;10.93;;;;;;;;;;5233547;28;20021;-83
2022/05/26 06:58:30;;;;;;;18.20;11.23;;;;;;;;;;5214808;28;20260;-82
2022/05/26 07:01:00;;;;;;;11.63;10.03;;;;;;;;;;5232150;28;20025;-82
2022/05/26 07:03:30;;;;;;;12.70;9.73;;;;;;;;;;5232224;28;20318;-83
2022/05/26 07:06:00;;;;;;;21.17;10.90;;;;;;;;;;5234570;28;20024;-81
2022/05/26 07:08:31;;;;;;;22.80;10.85;;;;;;;;;;5234833;28;20303;-84
2022/05/26 07:11:01;;;;;;;18.27;11.87;;;;;;;;;;5234864;28;20021;-82
2022/05/26 07:13:31;;;;;;;14.30;9.05;;;;;;;;;;5214712;28;20645;-83
2022/05/26 07:16:01;;;;;;;14.53;9.20;;;;;;;;;;5231781;28;20021;-83
2022/05/26 07:18:32;;;;;;;10.73;9.13;;;;;;;;;;5231340;28;20649;-83
2022/05/26 07:21:03;;;;;;;11.70;10.43;;;;;;;;;;5232150;28;20749;-84
2022/05/26 07:23:34;;;;;;;13.48;9.95;;;;;;;;;;5213399;28;20271;-83
2022/05/26 07:26:09;;;;;;;18.85;9.95;;;;;;;;;;5213101;28;20105;-83
2022/05/26 07:28:42;;;;;;;10.10;9.27;;;;;;;;;;5217712;28;20016;-83
2022/05/26 07:31:13;;;;;;;9.77;8.85;;;;;;;;;;5212766;28;20024;-83
2022/05/26 07:33:44;;;;;;;13.75;10.50;;;;;;;;;;5216279;28;20021;-82
2022/05/26 07:41:55;;;;;;;14.40;8.77;;;;;;;;;;5215088;28;20407;-84
2022/05/26 07:44:26;;;;;;;10.13;9.10;;;;;;;;;;5230505;28;20017;-83
2022/05/26 07:46:56;;;;;;;14.85;8.82;;;;;;;;;;5217995;28;20100;-83
2022/05/26 07:49:27;;;;;;;13.10;10.20;;;;;;;;;;5235189;28;20390;-83
2022/05/26 07:51:57;;;;;;;11.63;8.75;;;;;;;;;;5234692;28;20020;-83
2022/05/26 07:54:28;;;;;;;9.40;8.35;;;;;;;;;;5235719;28;20033;-83
2022/05/26 07:56:59;;;;;;;9.75;7.53;;;;;;;;;;5236528;28;20024;-83
2022/05/26 07:59:30;;;;;;;17.65;8.43;;;;;;;;;;5218430;28;20344;-83
2022/05/26 08:02:00;;;;;;;14.80;7.90;;;;;;;;;;5217747;28;20147;-84
2022/05/26 08:04:30;;;;;;;9.63;8.75;;;;;;;;;;5217550;28;20483;-84
2022/05/26 08:07:02;;;;;;;10.37;8.37;;;;;;;;;;5218019;28;20064;-84
2022/05/26 08:09:32;;;;;;;10.07;8.15;;;;;;;;;;5234987;28;20259;-86
2022/05/26 08:12:02;;;;;;;8.67;7.43;;;;;;;;;;5247810;22;20040;-79
2022/05/26 08:14:33;;;;;;;9.82;9.02;;;;;;;;;;5245782;28;20268;-80
2022/05/26 08:17:04;;;;;;;7.07;6.68;;;;;;;;;;5219201;28;20025;-80
2022/05/26 08:19:34;;;;;;;8.27;7.55;;;;;;;;;;5209530;28;20026;-79
2022/05/26 08:22:05;;;;;;;6.47;6.07;;;;;;;;;;5208483;28;20021;-78
2022/05/26 08:27:43;;;;;;;10.32;7.10;;;;;;;;;;5578390;22;20048;-92
2022/05/26 08:30:14;;;;;;;4.35;3.95;;;;;;;;;;5218362;28;20368;-91
2022/05/26 08:32:45;;;;;;;8.68;4.88;;;;;;;;;;5217048;28;20044;-93
2022/05/26 08:35:15;;;;;;;6.40;4.50;;;;;;;;;;5217624;28;20021;-91
2022/05/26 08:37:45;;;;;;;5.85;5.45;;;;;;;;;;5218287;28;20017;-92
2022/05/26 08:40:35;;;;;;;4.82;4.35;;;;;;;;;;5217039;28;20017;-91
2022/05/26 08:43:06;;;;;;;8.88;8.02;;;;;;;;;;5215567;28;20049;-91
2022/05/26 08:45:47;;;;;;;6.47;5.15;;;;;;;;;;5215955;28;20021;-89
2022/05/26 08:48:41;;;;;;;10.45;5.32;;;;;;;;;;5215484;28;20502;-90
2022/05/26 08:51:13;;;;;;;8.32;4.97;;;;;;;;;;5217024;28;20028;-92
2022/05/26 08:53:43;;;;;;;4.47;4.22;;;;;;;;;;5215821;28;20044;-91
2022/05/26 08:56:19;;;;;;;6.97;5.47;;;;;;;;;;5216768;28;20013;-92
2022/05/26 08:58:59;;;;;;;7.03;5.28;;;;;;;;;;5216032;28;20268;-92
2022/05/26 09:01:32;;;;;;;;;;;;;;;;;;5217684;28;20029;-91
2022/05/26 09:04:04;;;;;;;5.15;3.92;;;;;;;;;;5233152;28;20357;-92
2022/05/26 09:13:03;;;;;;;6.90;5.03;;;;;;;;;;5194763;28;20081;-91
2022/05/26 09:15:35;;;;;;;6.82;3.88;;;;;;;;;;5195173;28;20026;-90
2022/05/26 09:18:11;;;;;;;8.43;6.30;;;;;;;;;;5208087;28;20388;-90
2022/05/26 09:20:43;;;;;;;5.13;4.65;;;;;;;;;;5216711;28;20060;-90
2022/05/26 09:23:13;;;;;;;8.02;5.32;;;;;;;;;;5214690;28;20021;-92
2022/05/26 09:25:53;;;;;;;4.80;4.13;;;;;;;;;;5212017;28;20079;-87
2022/05/26 09:28:36;;;;;;;4.88;4.47;;;;;;;;;;5206653;28;20057;-92
2022/05/26 09:31:24;;;;;;;10.73;5.15;;;;;;;;;;5214831;28;20020;-91
2022/05/26 09:34:14;;;;;;;4.30;4.07;;;;;;;;;;5215245;28;20029;-91
2022/05/26 09:36:49;;;;;;;4.85;4.45;;;;;;;;;;5231982;28;20029;-91
2022/05/26 09:39:25;;;;;;;11.63;5.07;;;;;;;;;;5215523;28;20029;-92
2022/05/26 09:41:58;;;;;;;4.75;4.22;;;;;;;;;;5214978;28;20811;-90
2022/05/26 09:44:44;;;;;;;8.80;3.88;;;;;;;;;;5215768;28;20036;-92
2022/05/26 09:47:39;;;;;;;6.72;4.07;;;;;;;;;;5217444;28;20044;-93
2022/05/26 09:50:13;;;;;;;3.67;3.25;;;;;;;;;;5227428;28;20029;-92
2022/05/26 09:52:45;;;;;;;3.97;3.67;;;;;;;;;;5232592;28;20006;-93
2022/05/26 09:58:28;;;;;;;5.57;3.25;;;;;;;;;;5231607;28;20048;-93
2022/05/26 10:01:00;;;;;;;6.20;4.10;;;;;;;;;;5230765;28;20060;-91
2022/05/26 10:03:31;;;;;;;4.35;3.83;;;;;;;;;;5225127;28;20016;-92
2022/05/26 10:06:01;;;;;;;4.63;4.20;;;;;;;;;;5222027;28;20013;-93
2022/05/26 10:08:45;;;;;;;5.30;4.28;;;;;;;;;;5219679;28;20261;-93
2022/05/26 10:11:34;;;;;;;9.27;4.22;;;;;;;;;;5220275;28;20040;-90
2022/05/26 10:14:14;;;;;;;7.15;4.85;;;;;;;;;;5219077;28;20017;-89
2022/05/26 10:20:20;;;;;;;4.38;3.75;;;;;;;;;;5221435;28;20114;-92
2022/05/26 10:23:09;;;;;;;3.55;3.08;;;;;;;;;;5217857;28;20044;-94
2022/05/26 10:25:58;;;;;;;4.50;3.85;;;;;;;;;;5215532;28;20033;-93
2022/05/26 10:28:46;;;;;;;4.72;4.10;;;;;;;;;;5217628;28;20033;-92
2022/05/26 10:31:17;;;;;;;9.48;4.57;;;;;;;;;;5217563;28;20021;-92
2022/05/26 10:33:58;;;;;;;4.10;3.13;;;;;;;;;;5215639;28;20013;-92
2022/05/26 10:36:40;;;;;;;3.38;3.17;;;;;;;;;;5216269;28;20026;-92
2022/05/26 10:39:29;;;;;;;7.78;4.25;;;;;;;;;;5216333;28;20024;-92
2022/05/26 10:42:02;;;;;;;4.72;3.10;;;;;;;;;;5218386;28;20026;-92
2022/05/26 10:44:35;;;;;;;5.72;4.63;;;;;;;;;;5215925;28;20017;-94
2022/05/26 10:47:17;;;;;;;6.72;3.65;;;;;;;;;;5216203;28;20021;-91
2022/05/26 10:50:04;;;;;;;5.05;3.13;;;;;;;;;;5216825;28;20013;-92
2022/05/26 10:52:44;;;;;;;5.65;3.05;;;;;;;;;;5214565;28;20017;-91
2022/05/26 10:55:17;;;;;;;11.63;5.95;;;;;;;;;;5214655;28;20123;-93
2022/05/26 10:57:54;;;;;;;5.20;2.92;;;;;;;;;;5214372;28;20026;-91
2022/05/26 11:00:27;;;;;;;3.20;3.00;;;;;;;;;;5214984;28;20025;-92
2022/05/26 11:03:19;;;;;;;4.57;4.28;;;;;;;;;;5224300;28;20006;-93
2022/05/26 11:06:18;;;;;;;7.57;3.35;;;;;;;;;;5230740;28;20017;-93
2022/05/26 11:09:07;;;;;;;5.40;2.65;;;;;;;;;;5209783;28;20055;-93
2022/05/26 11:11:37;;;;;;;3.22;2.67;;;;;;;;;;5230011;28;20017;-91
2022/05/26 11:17:39;;;;;;;3.50;2.83;;;;;;;;;;5213930;28;20054;-93
2022/05/26 11:20:17;;;;;;;5.65;2.95;;;;;;;;;;5220940;28;20017;-93
2022/05/26 11:22:49;;;;;;;4.32;2.97;;;;;;;;;;5227005;28;20022;-93
2022/05/26 11:25:23;;;;;;;2.38;2.17;;;;;;;;;;5215451;28;20022;-92
2022/05/26 11:27:59;;;;;;;3.28;3.03;;;;;;;;;;5215445;28;20025;-93
2022/05/26 11:36:39;;;;;;;5.68;2.35;;;;;;;;;;5217673;28;20110;-91
2022/05/26 11:39:16;;;;;;;3.75;1.92;;;;;;;;;;5215873;28;20092;-90
2022/05/26 11:41:54;;;;;;;3.33;2.63;;;;;;;;;;5215422;28;20032;-92
2022/05/26 11:44:37;;;;;;;2.47;2.30;;;;;;;;;;5216771;28;20024;-92
2022/05/26 11:47:26;;;;;;;5.60;3.33;;;;;;;;;;5215192;28;20041;-93
2022/05/26 11:49:56;;;;;;;9.90;4.45;;;;;;;;;;5215757;28;20399;-91
2022/05/26 11:52:46;;;;;;;7.93;4.17;;;;;;;;;;5215626;28;20021;-91
2022/05/26 11:55:30;;;;;;;3.45;3.25;;;;;;;;;;5217558;28;20342;-94
2022/05/26 11:58:19;;;;;;;3.03;2.25;;;;;;;;;;5216859;28;20116;-91
2022/05/26 12:01:08;;;;;;;1.95;1.85;;;;;;;;;;5215674;28;20022;-91
2022/05/26 12:03:54;;;;;;;7.20;2.42;;;;;;;;;;5230529;28;20044;-94
2022/05/26 12:06:31;;;;;;;4.70;3.17;;;;;;;;;;5222030;22;20048;-62
2022/05/26 12:09:03;;;;;;;3.83;3.05;;;;;;;;;;5185833;28;20260;-64
2022/05/26 12:12:06;;;;;;;2.78;2.67;;;;;;;;;;5186137;28;20030;-64
2022/05/26 12:14:46;;;;;;;1.90;1.80;;;;;;;;;;5160991;28;20456;-64
2022/05/26 12:17:23;;;;;;;6.85;2.08;;;;;;;;;;5210376;28;20013;-64
2022/05/26 12:19:53;;;;;;;4.07;3.10;;;;;;;;;;5210163;28;20067;-64
2022/05/26 12:22:24;;;;;;;5.63;3.33;;;;;;;;;;5210467;28;20469;-64
2022/05/26 12:25:00;;;;;;;2.08;1.88;;;;;;;;;;5209897;28;20047;-64
2022/05/26 12:27:49;;;;;;;4.32;2.85;;;;;;;;;;5210335;28;20035;-64
2022/05/26 12:30:28;;;;;;;5.13;2.55;;;;;;;;;;5210114;28;20021;-64
2022/05/26 12:32:58;;;;;;;;;;;;;;;;;;5210518;28;20474;-63
2022/05/26 12:36:01;;;;;;;4.87;2.20;;;;;;;;;;5226585;28;19991;-65
2022/05/26 12:38:50;;;;;;;3.42;1.90;;;;;;;;;;5156452;28;20028;-64
2022/05/26 12:41:39;;;;;;;2.97;2.75;;;;;;;;;;5209808;28;20119;-64
2022/05/26 12:47:17;;;;;;;2.38;2.13;;;;;;;;;;5227781;28;20435;-64
2022/05/26 12:49:55;;;;;;;6.90;3.05;;;;;;;;;;5209356;28;20041;-64
2022/05/26 12:52:29;;;;;;;4.93;4.10;;;;;;;;;;5209615;28;20194;-64
2022/05/26 12:55:18;;;;;;;2.55;2.05;;;;;;;;;;5209289;28;20025;-66
2022/05/26 12:57:48;;;;;;;;;;;;;;;;;;5210246;28;20105;-63
2022/05/26 13:03:37;;;;;;;2.67;1.80;;;;;;;;;;5227982;28;20027;-63
2022/05/26 13:06:11;;;;;;;3.00;2.47;;;;;;;;;;5209201;28;20017;-63
2022/05/26 13:08:50;;;;;;;5.30;2.33;;;;;;;;;;5209889;28;20013;-62
2022/05/26 13:11:20;;;;;;;;;;;;;;;;;;5227494;28;20111;-63
2022/05/26 13:13:53;;;;;;;3.23;2.97;;;;;;;;;;5225668;28;20035;-64
2022/05/26 13:16:30;;;;;;;3.47;3.20;;;;;;;;;;5209051;28;20267;-63
2022/05/26 13:19:24;;;;;;;3.08;2.38;;;;;;;;;;5208918;28;20028;-63
2022/05/26 13:21:55;;;;;;;3.45;2.72;;;;;;;;;;5196266;28;20037;-65
2022/05/26 13:24:30;;;;;;;3.00;1.60;;;;;;;;;;5208452;28;20029;-63
2022/05/26 13:27:02;;;;;;;6.78;2.05;;;;;;;;;;5208155;28;20392;-64
2022/05/26 13:29:34;;;;;;;1.65;1.55;;;;;;;;;;5208819;28;20073;-64
2022/05/26 13:34:54;;;;;;;2.58;2.45;;;;;;;;;;5226508;28;20124;-65
2022/05/26 13:37:27;;;;;;;1.95;1.73;;;;;;;;;;5208393;28;20024;-64
2022/05/26 13:40:05;;;;;;;2.90;2.70;;;;;;;;;;5208613;28;20025;-64
2022/05/26 13:42:39;;;;;;;2.25;1.60;;;;;;;;;;5208413;28;20048;-64
2022/05/26 13:45:35;;;;;;;3.03;2.55;;;;;;;;;;5226182;28;20037;-64
2022/05/26 13:48:21;;;;;;;6.38;1.83;;;;;;;;;;5203679;28;20025;-64
2022/05/26 13:50:53;;;;;;;6.25;2.13;;;;;;;;;;5208369;28;20024;-65
2022/05/26 13:53:25;;;;;;;4.07;2.55;;;;;;;;;;5208223;28;20492;-64
2022/05/26 13:55:56;;;;;;;4.35;2.88;;;;;;;;;;5208143;28;20213;-63
2022/05/26 13:58:27;;;;;;;4.72;2.85;;;;;;;;;;5207978;28;20017;-62
2022/05/26 14:04:06;;;;;;;3.80;2.20;;;;;;;;;;5226214;28;20074;-64
2022/05/26 14:06:36;;;;;;;3.95;3.13;;;;;;;;;;5208074;28;20044;-63
2022/05/26 14:09:22;;;;;;;2.38;1.98;;;;;;;;;;5208164;28;20017;-63
2022/05/26 14:12:06;;;;;;;2.97;2.58;;;;;;;;;;5222469;22;20127;-62
2022/05/26 14:14:36;;;;;;;10.13;3.22;;;;;;;;;;5202200;28;20024;-64
2022/05/26 14:17:08;;;;;;;2.83;2.63;;;;;;;;;;5225628;28;20028;-61
2022/05/26 14:19:45;;;;;;;2.80;2.42;;;;;;;;;;5225516;28;20167;-62
2022/05/26 14:22:26;;;;;;;2.60;2.40;;;;;;;;;;5225893;28;20488;-61
2022/05/26 14:24:58;;;;;;;6.63;2.78;;;;;;;;;;5225602;28;20550;-61
2022/05/26 14:27:29;;;;;;;3.83;3.28;;;;;;;;;;5225711;28;20021;-63
2022/05/26 14:30:03;;;;;;;3.67;2.50;;;;;;;;;;5225885;28;20420;-63
2022/05/26 14:32:34;;;;;;;6.45;3.22;;;;;;;;;;5225424;28;20025;-62
2022/05/26 14:35:08;;;;;;;2.00;1.90;;;;;;;;;;5224843;28;20017;-61
2022/05/26 14:37:38;;;;;;;8.07;2.72;;;;;;;;;;5224488;28;20496;-63
2022/05/26 14:40:10;;;;;;;7.25;4.07;;;;;;;;;;5225189;28;20056;-62
2022/05/26 14:42:42;;;;;;;5.53;2.38;;;;;;;;;;5224778;28;20047;-63
2022/05/26 14:45:13;;;;;;;3.72;2.63;;;;;;;;;;5225928;28;20021;-63
2022/05/26 14:47:44;;;;;;;2.47;2.25;;;;;;;;;;5225306;28;20380;-63
2022/05/26 14:50:15;;;;;;;3.42;2.08;;;;;;;;;;5225309;28;20017;-61
2022/05/26 14:52:47;;;;;;;1.95;1.85;;;;;;;;;;5225322;28;20040;-61
2022/05/26 14:55:27;;;;;;;5.75;1.83;;;;;;;;;;5226092;28;20139;-63
2022/05/26 14:57:58;;;;;;;3.15;2.95;;;;;;;;;;5225518;28;20524;-61
2022/05/26 15:00:35;;;;;;;2.67;2.47;;;;;;;;;;5226309;28;20024;-63
2022/05/26 15:03:06;;;;;;;1.77;1.67;;;;;;;;;;5224962;28;20025;-63
2022/05/26 15:05:38;;;;;;;2.90;2.15;;;;;;;;;;5225189;28;20021;-61
2022/05/26 15:08:14;;;;;;;3.47;2.85;;;;;;;;;;5225234;28;20377;-61
2022/05/26 15:10:44;;;;;;;4.18;1.70;;;;;;;;;;5226373;28;20020;-62
2022/05/26 15:13:15;;;;;;;13.35;4.15;;;;;;;;;;5224804;28;20485;-63
2022/05/26 15:15:45;;;;;;;1.83;1.70;;;;;;;;;;5225203;28;20465;-63
2022/05/26 15:18:15;;;;;;;1.73;1.63;;;;;;;;;;5226252;28;20036;-64
2022/05/26 15:20:46;;;;;;;6.65;1.92;;;;;;;;;;5224850;28;20021;-61
2022/05/26 15:23:16;;;;;;;3.03;1.90;;;;;;;;;;5224606;28;20033;-62
2022/05/26 15:28:36;;;;;;;10.70;2.70;;;;;;;;;;5226324;28;20041;-63
2022/05/26 15:31:06;;;;;;;1.75;1.65;;;;;;;;;;5226129;28;20052;-62
2022/05/26 15:33:37;;;;;;;5.53;2.35;;;;;;;;;;5225126;28;20027;-63
2022/05/26 15:36:08;;;;;;;5.43;3.30;;;;;;;;;;5224814;28;20033;-62
2022/05/26 15:38:41;;;;;;;5.43;1.60;;;;;;;;;;5224789;28;20255;-63
2022/05/26 15:41:12;;;;;;;5.88;3.03;;;;;;;;;;5226004;28;20025;-63
2022/05/26 15:43:42;;;;;;;1.83;1.73;;;;;;;;;;5224378;28;20025;-63
2022/05/26 15:46:18;;;;;;;2.20;2.10;;;;;;;;;;5224781;28;20024;-62
2022/05/26 15:48:49;;;;;;;2.25;2.08;;;;;;;;;;5227681;28;20012;-64
2022/05/26 15:51:20;;;;;;;2.85;2.65;;;;;;;;;;5229031;28;20511;-63
2022/05/26 15:53:50;;;;;;;4.05;1.58;;;;;;;;;;5228397;28;20032;-63
2022/05/26 15:56:24;;;;;;;6.32;2.22;;;;;;;;;;5228672;28;20078;-62
2022/05/26 15:58:55;;;;;;;3.67;1.67;;;;;;;;;;5228510;28;20048;-62
2022/05/26 16:01:27;;;;;;;18.15;3.50;;;;;;;;;;5229827;28;20021;-61
2022/05/26 16:03:57;;;;;;;12.88;3.42;;;;;;;;;;5228105;28;20491;-63
2022/05/26 16:06:27;;;;;;;4.53;2.25;;;;;;;;;;5228644;28;20017;-63
2022/05/26 16:08:58;;;;;;;4.63;2.17;;;;;;;;;;5230202;28;20024;-61
2022/05/26 16:11:28;;;;;;;7.10;2.38;;;;;;;;;;5228585;28;20020;-60
2022/05/26 16:14:02;;;;;;;3.80;3.50;;;;;;;;;;5227845;28;20228;-60
2022/05/26 16:16:32;;;;;;;3.30;2.05;;;;;;;;;;5228211;28;20027;-62
2022/05/26 16:19:03;;;;;;;3.70;3.05;;;;;;;;;;5228093;28;20029;-60
2022/05/26 16:21:34;;;;;;;6.40;2.97;;;;;;;;;;5228202;28;20017;-60
2022/05/26 16:24:07;;;;;;;1.92;1.83;;;;;;;;;;5227718;28;20170;-60